sensor_id;sensor_type;location;lat;lon;timestamp;P1;durP1;ratioP1;P2;durP2;ratioP2
23444;SDS011;11895;48.738;9.320;2022-11-15T00:02:16;18.65;;;9.75;;
23444;SDS011;11895;48.738;9.320;2022-11-15T00:05:03;22.48;;;11.02;;
23444;SDS011;11895;48.738;9.320;2022-11-15T00:07:51;22.95;;;10.50;;
23444;SDS011;11895;48.738;9.320;2022-11-15T00:10:40;24.42;;;11.75;;
23444;SDS011;11895;48.738;9.320;2022-11-15T00:13:27;24.15;;;10.50;;
23444;SDS011;11895;48.738;9.320;2022-11-15T00:16:15;18.80;;;10.80;;
23444;SDS011;11895;48.738;9.320;2022-11-15T00:19:02;17.48;;;9.98;;
23444;SDS011;11895;48.738;9.320;2022-11-15T00:21:48;19.00;;;9.30;;
23444;SDS011;11895;48.738;9.320;2022-11-15T00:24:34;16.27;;;9.43;;
23444;SDS011;11895;48.738;9.320;2022-11-15T00:27:21;16.98;;;9.82;;
23444;SDS011;11895;48.738;9.320;2022-11-15T00:30:07;16.92;;;9.90;;
23444;SDS011;11895;48.738;9.320;2022-11-15T00:32:54;23.55;;;9.52;;
23444;SDS011;11895;48.738;9.320;2022-11-15T00:35:41;22.67;;;11.00;;
23444;SDS011;11895;48.738;9.320;2022-11-15T00:38:34;18.95;;;9.73;;
23444;SDS011;11895;48.738;9.320;2022-11-15T00:41:22;25.77;;;14.68;;
23444;SDS011;11895;48.738;9.320;2022-11-15T00:44:09;20.52;;;10.63;;
23444;SDS011;11895;48.738;9.320;2022-11-15T00:46:56;19.08;;;10.15;;
23444;SDS011;11895;48.738;9.320;2022-11-15T00:49:42;16.88;;;8.90;;
23444;SDS011;11895;48.738;9.320;2022-11-15T00:52:28;19.38;;;9.63;;
23444;SDS011;11895;48.738;9.320;2022-11-15T00:55:15;21.02;;;9.23;;
23444;SDS011;11895;48.738;9.320;2022-11-15T00:58:03;17.85;;;9.20;;
23444;SDS011;11895;48.738;9.320;2022-11-15T01:00:49;15.48;;;8.70;;
23444;SDS011;11895;48.738;9.320;2022-11-15T01:03:36;15.48;;;9.02;;
23444;SDS011;11895;48.738;9.320;2022-11-15T01:06:25;16.35;;;9.60;;
23444;SDS011;11895;48.738;9.320;2022-11-15T01:09:11;16.80;;;9.35;;
23444;SDS011;11895;48.738;9.320;2022-11-15T01:11:58;17.20;;;8.68;;
23444;SDS011;11895;48.738;9.320;2022-11-15T01:14:45;18.92;;;8.40;;
23444;SDS011;11895;48.738;9.320;2022-11-15T01:17:31;13.65;;;8.40;;
23444;SDS011;11895;48.738;9.320;2022-11-15T01:20:17;15.15;;;8.85;;
23444;SDS011;11895;48.738;9.320;2022-11-15T01:23:03;14.70;;;9.00;;
23444;SDS011;11895;48.738;9.320;2022-11-15T01:25:50;15.13;;;8.50;;
23444;SDS011;11895;48.738;9.320;2022-11-15T01:28:37;18.88;;;8.48;;
23444;SDS011;11895;48.738;9.320;2022-11-15T01:31:25;13.75;;;7.90;;
23444;SDS011;11895;48.738;9.320;2022-11-15T01:34:12;16.00;;;8.27;;
23444;SDS011;11895;48.738;9.320;2022-11-15T01:37:00;16.75;;;9.30;;
23444;SDS011;11895;48.738;9.320;2022-11-15T01:39:46;15.27;;;8.45;;
23444;SDS011;11895;48.738;9.320;2022-11-15T01:42:32;17.42;;;8.65;;
23444;SDS011;11895;48.738;9.320;2022-11-15T01:45:19;17.95;;;8.65;;
23444;SDS011;11895;48.738;9.320;2022-11-15T01:48:07;12.73;;;8.45;;
23444;SDS011;11895;48.738;9.320;2022-11-15T01:50:55;20.95;;;7.97;;
23444;SDS011;11895;48.738;9.320;2022-11-15T01:56:35;12.95;;;8.02;;
23444;SDS011;11895;48.738;9.320;2022-11-15T01:59:28;13.80;;;7.57;;
23444;SDS011;11895;48.738;9.320;2022-11-15T02:02:15;15.25;;;7.88;;
23444;SDS011;11895;48.738;9.320;2022-11-15T02:05:01;18.75;;;10.05;;
23444;SDS011;11895;48.738;9.320;2022-11-15T02:07:51;16.35;;;8.73;;
23444;SDS011;11895;48.738;9.320;2022-11-15T02:10:39;12.90;;;7.63;;
23444;SDS011;11895;48.738;9.320;2022-11-15T02:13:25;12.85;;;8.00;;
23444;SDS011;11895;48.738;9.320;2022-11-15T02:44:34;14.15;;;7.45;;
23444;SDS011;11895;48.738;9.320;2022-11-15T02:47:28;13.57;;;7.63;;
23444;SDS011;11895;48.738;9.320;2022-11-15T02:50:27;15.23;;;7.38;;
23444;SDS011;11895;48.738;9.320;2022-11-15T02:53:40;12.43;;;7.63;;
23444;SDS011;11895;48.738;9.320;2022-11-15T02:56:27;13.88;;;8.15;;
23444;SDS011;11895;48.738;9.320;2022-11-15T03:08:55;12.35;;;6.60;;
23444;SDS011;11895;48.738;9.320;2022-11-15T03:12:12;12.43;;;6.47;;
23444;SDS011;11895;48.738;9.320;2022-11-15T03:15:20;19.50;;;9.18;;
23444;SDS011;11895;48.738;9.320;2022-11-15T03:18:16;19.70;;;9.63;;
23444;SDS011;11895;48.738;9.320;2022-11-15T03:21:12;20.50;;;9.03;;
23444;SDS011;11895;48.738;9.320;2022-11-15T03:26:53;18.88;;;10.15;;
23444;SDS011;11895;48.738;9.320;2022-11-15T03:29:46;17.45;;;9.43;;
23444;SDS011;11895;48.738;9.320;2022-11-15T03:32:47;27.20;;;10.30;;
23444;SDS011;11895;48.738;9.320;2022-11-15T03:35:42;14.30;;;8.90;;
23444;SDS011;11895;48.738;9.320;2022-11-15T03:38:29;19.02;;;9.70;;
23444;SDS011;11895;48.738;9.320;2022-11-15T03:41:22;17.23;;;9.48;;
23444;SDS011;11895;48.738;9.320;2022-11-15T03:47:27;15.50;;;9.95;;
23444;SDS011;11895;48.738;9.320;2022-11-15T03:50:22;17.77;;;8.18;;
23444;SDS011;11895;48.738;9.320;2022-11-15T03:53:09;20.25;;;9.02;;
23444;SDS011;11895;48.738;9.320;2022-11-15T03:55:57;15.75;;;9.07;;
23444;SDS011;11895;48.738;9.320;2022-11-15T03:58:43;16.42;;;9.02;;
23444;SDS011;11895;48.738;9.320;2022-11-15T04:01:29;14.55;;;9.45;;
23444;SDS011;11895;48.738;9.320;2022-11-15T04:04:16;15.85;;;8.32;;
23444;SDS011;11895;48.738;9.320;2022-11-15T04:07:02;18.55;;;9.13;;
23444;SDS011;11895;48.738;9.320;2022-11-15T04:09:49;15.80;;;8.73;;
23444;SDS011;11895;48.738;9.320;2022-11-15T04:12:46;13.88;;;8.13;;
23444;SDS011;11895;48.738;9.320;2022-11-15T04:15:33;13.63;;;7.75;;
23444;SDS011;11895;48.738;9.320;2022-11-15T04:18:20;12.80;;;7.93;;
23444;SDS011;11895;48.738;9.320;2022-11-15T04:21:07;13.07;;;7.65;;
23444;SDS011;11895;48.738;9.320;2022-11-15T04:24:12;14.93;;;7.55;;
23444;SDS011;11895;48.738;9.320;2022-11-15T04:26:59;15.43;;;7.80;;
23444;SDS011;11895;48.738;9.320;2022-11-15T04:29:46;10.52;;;6.38;;
23444;SDS011;11895;48.738;9.320;2022-11-15T04:32:32;12.00;;;6.70;;
23444;SDS011;11895;48.738;9.320;2022-11-15T04:35:19;9.10;;;5.70;;
23444;SDS011;11895;48.738;9.320;2022-11-15T04:38:06;12.10;;;6.35;;
23444;SDS011;11895;48.738;9.320;2022-11-15T04:41:00;9.23;;;5.32;;
23444;SDS011;11895;48.738;9.320;2022-11-15T04:43:48;8.00;;;5.03;;
23444;SDS011;11895;48.738;9.320;2022-11-15T04:46:34;9.23;;;4.82;;
23444;SDS011;11895;48.738;9.320;2022-11-15T04:49:20;11.25;;;5.60;;
23444;SDS011;11895;48.738;9.320;2022-11-15T04:52:07;9.75;;;5.43;;
23444;SDS011;11895;48.738;9.320;2022-11-15T04:54:53;11.55;;;6.60;;
23444;SDS011;11895;48.738;9.320;2022-11-15T04:57:46;9.32;;;6.57;;
23444;SDS011;11895;48.738;9.320;2022-11-15T05:00:32;15.90;;;6.13;;
23444;SDS011;11895;48.738;9.320;2022-11-15T05:03:18;10.13;;;6.40;;
23444;SDS011;11895;48.738;9.320;2022-11-15T05:06:23;14.30;;;6.38;;
23444;SDS011;11895;48.738;9.320;2022-11-15T05:09:10;9.93;;;6.25;;
23444;SDS011;11895;48.738;9.320;2022-11-15T05:11:58;15.27;;;6.70;;
23444;SDS011;11895;48.738;9.320;2022-11-15T05:14:44;17.75;;;7.65;;
23444;SDS011;11895;48.738;9.320;2022-11-15T05:17:30;17.58;;;7.60;;
23444;SDS011;11895;48.738;9.320;2022-11-15T05:20:17;14.07;;;8.60;;
23444;SDS011;11895;48.738;9.320;2022-11-15T05:23:03;19.35;;;8.45;;
23444;SDS011;11895;48.738;9.320;2022-11-15T05:25:50;14.63;;;8.65;;
23444;SDS011;11895;48.738;9.320;2022-11-15T05:28:37;15.45;;;8.55;;
23444;SDS011;11895;48.738;9.320;2022-11-15T05:31:24;16.83;;;9.07;;
23444;SDS011;11895;48.738;9.320;2022-11-15T05:34:12;16.50;;;8.63;;
23444;SDS011;11895;48.738;9.320;2022-11-15T05:36:58;19.20;;;9.07;;
23444;SDS011;11895;48.738;9.320;2022-11-15T05:39:45;17.98;;;9.35;;
23444;SDS011;11895;48.738;9.320;2022-11-15T05:42:31;12.75;;;7.80;;
23444;SDS011;11895;48.738;9.320;2022-11-15T05:45:18;13.82;;;8.88;;
23444;SDS011;11895;48.738;9.320;2022-11-15T05:48:10;19.55;;;8.35;;
23444;SDS011;11895;48.738;9.320;2022-11-15T05:50:58;17.05;;;8.18;;
23444;SDS011;11895;48.738;9.320;2022-11-15T05:53:46;18.67;;;9.02;;
23444;SDS011;11895;48.738;9.320;2022-11-15T05:56:34;17.42;;;8.73;;
23444;SDS011;11895;48.738;9.320;2022-11-15T05:59:20;16.45;;;8.10;;
23444;SDS011;11895;48.738;9.320;2022-11-15T06:02:06;15.68;;;8.98;;
23444;SDS011;11895;48.738;9.320;2022-11-15T06:04:52;13.35;;;7.95;;
23444;SDS011;11895;48.738;9.320;2022-11-15T06:07:38;16.95;;;9.60;;
23444;SDS011;11895;48.738;9.320;2022-11-15T06:10:25;23.13;;;9.32;;
23444;SDS011;11895;48.738;9.320;2022-11-15T06:13:12;15.00;;;8.43;;
23444;SDS011;11895;48.738;9.320;2022-11-15T06:15:58;18.70;;;8.30;;
23444;SDS011;11895;48.738;9.320;2022-11-15T06:18:45;13.85;;;9.13;;
23444;SDS011;11895;48.738;9.320;2022-11-15T06:21:31;17.00;;;10.63;;
23444;SDS011;11895;48.738;9.320;2022-11-15T06:24:18;17.80;;;9.63;;
23444;SDS011;11895;48.738;9.320;2022-11-15T06:27:04;14.75;;;9.10;;
23444;SDS011;11895;48.738;9.320;2022-11-15T06:29:51;18.52;;;9.20;;
23444;SDS011;11895;48.738;9.320;2022-11-15T06:32:37;12.88;;;8.05;;
23444;SDS011;11895;48.738;9.320;2022-11-15T06:35:23;17.77;;;9.80;;
23444;SDS011;11895;48.738;9.320;2022-11-15T06:38:12;17.45;;;9.68;;
23444;SDS011;11895;48.738;9.320;2022-11-15T06:41:01;18.73;;;8.85;;
23444;SDS011;11895;48.738;9.320;2022-11-15T06:43:50;21.05;;;9.18;;
23444;SDS011;11895;48.738;9.320;2022-11-15T06:46:36;15.43;;;8.80;;
23444;SDS011;11895;48.738;9.320;2022-11-15T06:49:22;15.15;;;9.43;;
23444;SDS011;11895;48.738;9.320;2022-11-15T06:52:08;16.63;;;9.15;;
23444;SDS011;11895;48.738;9.320;2022-11-15T06:54:55;16.63;;;7.85;;
23444;SDS011;11895;48.738;9.320;2022-11-15T06:57:51;15.20;;;8.85;;
23444;SDS011;11895;48.738;9.320;2022-11-15T07:00:37;18.27;;;8.18;;
23444;SDS011;11895;48.738;9.320;2022-11-15T07:03:24;17.15;;;8.85;;
23444;SDS011;11895;48.738;9.320;2022-11-15T07:06:11;16.50;;;8.65;;
23444;SDS011;11895;48.738;9.320;2022-11-15T07:08:57;19.23;;;8.98;;
23444;SDS011;11895;48.738;9.320;2022-11-15T07:11:43;14.52;;;9.05;;
23444;SDS011;11895;48.738;9.320;2022-11-15T07:14:30;13.27;;;8.40;;
23444;SDS011;11895;48.738;9.320;2022-11-15T07:17:16;18.38;;;8.85;;
23444;SDS011;11895;48.738;9.320;2022-11-15T07:20:02;12.05;;;7.40;;
23444;SDS011;11895;48.738;9.320;2022-11-15T07:22:49;17.00;;;8.70;;
23444;SDS011;11895;48.738;9.320;2022-11-15T07:25:35;18.45;;;8.75;;
23444;SDS011;11895;48.738;9.320;2022-11-15T07:28:47;14.02;;;7.95;;
23444;SDS011;11895;48.738;9.320;2022-11-15T07:31:34;12.57;;;8.23;;
23444;SDS011;11895;48.738;9.320;2022-11-15T07:34:20;13.32;;;8.20;;
23444;SDS011;11895;48.738;9.320;2022-11-15T07:37:06;18.05;;;8.73;;
23444;SDS011;11895;48.738;9.320;2022-11-15T07:39:53;18.92;;;8.38;;
23444;SDS011;11895;48.738;9.320;2022-11-15T07:42:39;15.13;;;8.48;;
23444;SDS011;11895;48.738;9.320;2022-11-15T07:48:29;15.20;;;8.65;;
23444;SDS011;11895;48.738;9.320;2022-11-15T07:54:14;19.15;;;8.52;;
23444;SDS011;11895;48.738;9.320;2022-11-15T07:57:06;17.45;;;8.00;;
23444;SDS011;11895;48.738;9.320;2022-11-15T07:59:54;14.15;;;6.65;;
23444;SDS011;11895;48.738;9.320;2022-11-15T08:02:41;17.95;;;8.20;;
23444;SDS011;11895;48.738;9.320;2022-11-15T08:05:27;18.98;;;8.07;;
23444;SDS011;11895;48.738;9.320;2022-11-15T08:08:14;14.70;;;8.40;;
23444;SDS011;11895;48.738;9.320;2022-11-15T08:11:01;12.10;;;7.93;;
23444;SDS011;11895;48.738;9.320;2022-11-15T08:13:48;14.65;;;8.48;;
23444;SDS011;11895;48.738;9.320;2022-11-15T08:16:34;19.83;;;8.02;;
23444;SDS011;11895;48.738;9.320;2022-11-15T08:19:20;17.25;;;8.13;;
23444;SDS011;11895;48.738;9.320;2022-11-15T08:22:07;12.45;;;7.22;;
23444;SDS011;11895;48.738;9.320;2022-11-15T08:24:53;18.02;;;7.53;;
23444;SDS011;11895;48.738;9.320;2022-11-15T08:27:40;21.65;;;8.48;;
23444;SDS011;11895;48.738;9.320;2022-11-15T08:30:26;20.20;;;8.32;;
23444;SDS011;11895;48.738;9.320;2022-11-15T08:33:15;17.55;;;8.40;;
23444;SDS011;11895;48.738;9.320;2022-11-15T08:36:01;26.75;;;8.55;;
23444;SDS011;11895;48.738;9.320;2022-11-15T08:38:48;16.65;;;8.00;;
23444;SDS011;11895;48.738;9.320;2022-11-15T08:41:35;13.32;;;8.00;;
23444;SDS011;11895;48.738;9.320;2022-11-15T08:44:23;17.10;;;7.63;;
23444;SDS011;11895;48.738;9.320;2022-11-15T08:47:10;20.80;;;8.13;;
23444;SDS011;11895;48.738;9.320;2022-11-15T08:49:58;19.40;;;8.55;;
23444;SDS011;11895;48.738;9.320;2022-11-15T08:52:44;13.90;;;8.05;;
23444;SDS011;11895;48.738;9.320;2022-11-15T08:55:31;15.30;;;8.30;;
23444;SDS011;11895;48.738;9.320;2022-11-15T08:58:17;17.40;;;8.50;;
23444;SDS011;11895;48.738;9.320;2022-11-15T09:01:04;32.05;;;9.00;;
23444;SDS011;11895;48.738;9.320;2022-11-15T09:03:51;14.02;;;8.00;;
23444;SDS011;11895;48.738;9.320;2022-11-15T09:06:37;17.73;;;8.63;;
23444;SDS011;11895;48.738;9.320;2022-11-15T09:09:27;24.08;;;8.30;;
23444;SDS011;11895;48.738;9.320;2022-11-15T09:12:14;19.85;;;8.35;;
23444;SDS011;11895;48.738;9.320;2022-11-15T09:15:00;15.55;;;7.57;;
23444;SDS011;11895;48.738;9.320;2022-11-15T09:17:47;13.98;;;7.40;;
23444;SDS011;11895;48.738;9.320;2022-11-15T09:20:33;12.15;;;6.95;;
23444;SDS011;11895;48.738;9.320;2022-11-15T09:23:19;18.60;;;7.38;;
23444;SDS011;11895;48.738;9.320;2022-11-15T09:26:06;13.55;;;7.13;;
23444;SDS011;11895;48.738;9.320;2022-11-15T09:28:53;14.80;;;7.38;;
23444;SDS011;11895;48.738;9.320;2022-11-15T09:31:39;15.02;;;7.47;;
23444;SDS011;11895;48.738;9.320;2022-11-15T09:34:26;17.52;;;7.88;;
23444;SDS011;11895;48.738;9.320;2022-11-15T09:37:12;19.00;;;7.18;;
23444;SDS011;11895;48.738;9.320;2022-11-15T09:39:59;15.90;;;7.85;;
23444;SDS011;11895;48.738;9.320;2022-11-15T09:50:08;20.10;;;11.68;;
23444;SDS011;11895;48.738;9.320;2022-11-15T09:52:44;15.20;;;7.95;;
23444;SDS011;11895;48.738;9.320;2022-11-15T09:55:15;21.97;;;10.70;;
23444;SDS011;11895;48.738;9.320;2022-11-15T09:57:54;14.55;;;8.15;;
23444;SDS011;11895;48.738;9.320;2022-11-15T10:00:38;15.18;;;8.50;;
23444;SDS011;11895;48.738;9.320;2022-11-15T10:03:14;21.02;;;9.77;;
23444;SDS011;11895;48.738;9.320;2022-11-15T10:06:01;12.70;;;7.80;;
23444;SDS011;11895;48.738;9.320;2022-11-15T10:11:22;17.60;;;9.65;;
23444;SDS011;11895;48.738;9.320;2022-11-15T10:14:26;14.65;;;8.73;;
23444;SDS011;11895;48.738;9.320;2022-11-15T10:20:44;15.38;;;7.22;;
23444;SDS011;11895;48.738;9.320;2022-11-15T10:23:17;11.48;;;7.43;;
23444;SDS011;11895;48.738;9.320;2022-11-15T10:25:51;19.05;;;10.27;;
23444;SDS011;11895;48.738;9.320;2022-11-15T10:28:27;22.42;;;11.15;;
23444;SDS011;11895;48.738;9.320;2022-11-15T10:30:58;18.70;;;7.75;;
23444;SDS011;11895;48.738;9.320;2022-11-15T10:33:31;19.92;;;9.65;;
23444;SDS011;11895;48.738;9.320;2022-11-15T10:44:42;14.70;;;7.25;;
23444;SDS011;11895;48.738;9.320;2022-11-15T10:49:29;16.17;;;6.82;;
23444;SDS011;11895;48.738;9.320;2022-11-15T10:52:15;14.40;;;6.80;;
23444;SDS011;11895;48.738;9.320;2022-11-15T10:57:33;12.68;;;7.28;;
23444;SDS011;11895;48.738;9.320;2022-11-15T11:00:05;18.40;;;9.15;;
23444;SDS011;11895;48.738;9.320;2022-11-15T11:05:35;14.90;;;6.65;;
23444;SDS011;11895;48.738;9.320;2022-11-15T11:10:42;18.33;;;9.52;;
23444;SDS011;11895;48.738;9.320;2022-11-15T11:13:32;17.20;;;7.40;;
23444;SDS011;11895;48.738;9.320;2022-11-15T11:19:24;10.60;;;6.47;;
23444;SDS011;11895;48.738;9.320;2022-11-15T11:34:04;14.55;;;6.55;;
23444;SDS011;11895;48.738;9.320;2022-11-15T11:41:04;15.80;;;6.90;;
23444;SDS011;11895;48.738;9.320;2022-11-15T11:47:29;17.13;;;6.47;;
23444;SDS011;11895;48.738;9.320;2022-11-15T11:50:19;10.80;;;7.03;;
23444;SDS011;11895;48.738;9.320;2022-11-15T11:56:55;13.07;;;6.13;;
23444;SDS011;11895;48.738;9.320;2022-11-15T11:59:12;13.52;;;5.90;;
23444;SDS011;11895;48.738;9.320;2022-11-15T12:02:02;10.98;;;5.63;;
23444;SDS011;11895;48.738;9.320;2022-11-15T12:04:49;7.43;;;5.20;;
23444;SDS011;11895;48.738;9.320;2022-11-15T12:10:01;10.63;;;5.45;;
23444;SDS011;11895;48.738;9.320;2022-11-15T12:15:26;9.85;;;6.50;;
23444;SDS011;11895;48.738;9.320;2022-11-15T12:18:00;11.52;;;5.90;;
23444;SDS011;11895;48.738;9.320;2022-11-15T12:20:34;11.90;;;6.05;;
23444;SDS011;11895;48.738;9.320;2022-11-15T12:25:45;17.30;;;5.43;;
23444;SDS011;11895;48.738;9.320;2022-11-15T12:28:40;10.52;;;5.63;;
23444;SDS011;11895;48.738;9.320;2022-11-15T12:31:36;11.80;;;5.70;;
23444;SDS011;11895;48.738;9.320;2022-11-15T12:34:13;11.52;;;6.50;;
23444;SDS011;11895;48.738;9.320;2022-11-15T12:36:46;12.77;;;6.28;;
23444;SDS011;11895;48.738;9.320;2022-11-15T12:39:16;11.93;;;5.57;;
23444;SDS011;11895;48.738;9.320;2022-11-15T12:42:35;11.95;;;5.57;;
23444;SDS011;11895;48.738;9.320;2022-11-15T12:44:58;13.20;;;6.10;;
23444;SDS011;11895;48.738;9.320;2022-11-15T12:47:26;12.02;;;6.45;;
23444;SDS011;11895;48.738;9.320;2022-11-15T12:49:54;12.45;;;6.22;;
23444;SDS011;11895;48.738;9.320;2022-11-15T12:52:22;14.98;;;6.15;;
23444;SDS011;11895;48.738;9.320;2022-11-15T12:54:54;12.15;;;6.10;;
23444;SDS011;11895;48.738;9.320;2022-11-15T12:57:32;17.60;;;6.88;;
23444;SDS011;11895;48.738;9.320;2022-11-15T13:00:36;13.00;;;6.95;;
23444;SDS011;11895;48.738;9.320;2022-11-15T13:03:12;14.55;;;6.75;;
23444;SDS011;11895;48.738;9.320;2022-11-15T13:05:55;14.93;;;7.07;;
23444;SDS011;11895;48.738;9.320;2022-11-15T13:08:38;13.57;;;7.05;;
23444;SDS011;11895;48.738;9.320;2022-11-15T13:19:47;21.85;;;6.95;;
23444;SDS011;11895;48.738;9.320;2022-11-15T13:30:50;13.63;;;6.45;;
23444;SDS011;11895;48.738;9.320;2022-11-15T13:33:31;16.25;;;6.20;;
23444;SDS011;11895;48.738;9.320;2022-11-15T13:38:59;16.95;;;6.72;;
23444;SDS011;11895;48.738;9.320;2022-11-15T13:41:32;18.00;;;6.88;;
23444;SDS011;11895;48.738;9.320;2022-11-15T13:44:03;16.42;;;6.97;;
23444;SDS011;11895;48.738;9.320;2022-11-15T13:46:46;20.83;;;6.95;;
23444;SDS011;11895;48.738;9.320;2022-11-15T13:49:13;21.08;;;6.97;;
23444;SDS011;11895;48.738;9.320;2022-11-15T13:54:33;17.88;;;6.65;;
23444;SDS011;11895;48.738;9.320;2022-11-15T13:57:22;13.85;;;6.35;;
23444;SDS011;11895;48.738;9.320;2022-11-15T13:59:55;18.70;;;6.03;;
23444;SDS011;11895;48.738;9.320;2022-11-15T14:02:37;12.35;;;5.53;;
23444;SDS011;11895;48.738;9.320;2022-11-15T14:05:12;12.20;;;5.68;;
23444;SDS011;11895;48.738;9.320;2022-11-15T14:07:56;9.80;;;4.90;;
23444;SDS011;11895;48.738;9.320;2022-11-15T14:10:32;14.15;;;5.03;;
23444;SDS011;11895;48.738;9.320;2022-11-15T14:13:03;16.48;;;5.72;;
23444;SDS011;11895;48.738;9.320;2022-11-15T14:15:52;12.77;;;5.07;;
23444;SDS011;11895;48.738;9.320;2022-11-15T14:21:11;16.67;;;8.48;;
23444;SDS011;11895;48.738;9.320;2022-11-15T14:23:44;18.50;;;6.88;;
23444;SDS011;11895;48.738;9.320;2022-11-15T14:31:49;15.60;;;7.78;;
23444;SDS011;11895;48.738;9.320;2022-11-15T14:34:18;15.55;;;6.32;;
23444;SDS011;11895;48.738;9.320;2022-11-15T14:36:48;14.48;;;7.22;;
23444;SDS011;11895;48.738;9.320;2022-11-15T14:39:16;18.67;;;7.60;;
23444;SDS011;11895;48.738;9.320;2022-11-15T14:41:43;14.77;;;6.85;;
23444;SDS011;11895;48.738;9.320;2022-11-15T14:44:11;11.60;;;6.30;;
23444;SDS011;11895;48.738;9.320;2022-11-15T14:46:38;19.17;;;9.68;;
23444;SDS011;11895;48.738;9.320;2022-11-15T14:49:25;17.40;;;9.80;;
23444;SDS011;11895;48.738;9.320;2022-11-15T14:51:52;16.70;;;9.25;;
23444;SDS011;11895;48.738;9.320;2022-11-15T14:54:20;20.42;;;9.48;;
23444;SDS011;11895;48.738;9.320;2022-11-15T14:56:48;16.60;;;7.80;;
23444;SDS011;11895;48.738;9.320;2022-11-15T14:59:16;18.50;;;7.05;;
23444;SDS011;11895;48.738;9.320;2022-11-15T15:01:44;17.75;;;6.97;;
23444;SDS011;11895;48.738;9.320;2022-11-15T15:04:11;17.95;;;6.75;;
23444;SDS011;11895;48.738;9.320;2022-11-15T15:06:39;24.85;;;6.85;;
23444;SDS011;11895;48.738;9.320;2022-11-15T15:09:12;14.38;;;7.43;;
23444;SDS011;11895;48.738;9.320;2022-11-15T15:11:41;19.45;;;8.60;;
23444;SDS011;11895;48.738;9.320;2022-11-15T15:14:08;20.88;;;8.45;;
23444;SDS011;11895;48.738;9.320;2022-11-15T15:16:36;18.90;;;6.97;;
23444;SDS011;11895;48.738;9.320;2022-11-15T15:19:04;12.25;;;6.88;;
23444;SDS011;11895;48.738;9.320;2022-11-15T15:21:31;11.85;;;6.70;;
23444;SDS011;11895;48.738;9.320;2022-11-15T15:24:03;33.50;;;9.05;;
23444;SDS011;11895;48.738;9.320;2022-11-15T15:26:31;22.10;;;11.55;;
23444;SDS011;11895;48.738;9.320;2022-11-15T15:29:03;25.15;;;14.45;;
23444;SDS011;11895;48.738;9.320;2022-11-15T15:31:31;23.30;;;12.65;;
23444;SDS011;11895;48.738;9.320;2022-11-15T15:33:59;21.75;;;11.20;;
23444;SDS011;11895;48.738;9.320;2022-11-15T15:36:27;23.77;;;11.38;;
23444;SDS011;11895;48.738;9.320;2022-11-15T15:38:55;22.52;;;12.25;;
23444;SDS011;11895;48.738;9.320;2022-11-15T15:41:23;26.85;;;15.10;;
23444;SDS011;11895;48.738;9.320;2022-11-15T15:43:51;28.90;;;14.55;;
23444;SDS011;11895;48.738;9.320;2022-11-15T15:46:19;27.57;;;15.37;;
23444;SDS011;11895;48.738;9.320;2022-11-15T15:48:47;27.00;;;14.73;;
23444;SDS011;11895;48.738;9.320;2022-11-15T15:51:15;23.70;;;11.73;;
23444;SDS011;11895;48.738;9.320;2022-11-15T15:53:46;23.10;;;10.82;;
23444;SDS011;11895;48.738;9.320;2022-11-15T15:56:14;19.42;;;10.50;;
23444;SDS011;11895;48.738;9.320;2022-11-15T15:58:43;22.45;;;10.32;;
23444;SDS011;11895;48.738;9.320;2022-11-15T16:01:11;22.25;;;9.90;;
23444;SDS011;11895;48.738;9.320;2022-11-15T16:03:39;18.10;;;9.98;;
23444;SDS011;11895;48.738;9.320;2022-11-15T16:06:23;26.60;;;11.50;;
23444;SDS011;11895;48.738;9.320;2022-11-15T16:09:04;18.30;;;10.75;;
23444;SDS011;11895;48.738;9.320;2022-11-15T16:11:43;30.00;;;13.55;;
23444;SDS011;11895;48.738;9.320;2022-11-15T16:14:12;23.45;;;13.32;;
23444;SDS011;11895;48.738;9.320;2022-11-15T16:16:40;25.95;;;13.93;;
23444;SDS011;11895;48.738;9.320;2022-11-15T16:19:07;28.55;;;13.00;;
23444;SDS011;11895;48.738;9.320;2022-11-15T16:21:37;25.10;;;13.20;;
23444;SDS011;11895;48.738;9.320;2022-11-15T16:24:04;25.10;;;11.13;;
23444;SDS011;11895;48.738;9.320;2022-11-15T16:26:32;26.02;;;11.23;;
23444;SDS011;11895;48.738;9.320;2022-11-15T16:29:03;17.23;;;9.45;;
23444;SDS011;11895;48.738;9.320;2022-11-15T16:31:33;19.80;;;9.48;;
23444;SDS011;11895;48.738;9.320;2022-11-15T16:34:01;17.58;;;9.88;;
23444;SDS011;11895;48.738;9.320;2022-11-15T16:36:30;22.73;;;9.55;;
23444;SDS011;11895;48.738;9.320;2022-11-15T16:39:01;20.23;;;9.60;;
23444;SDS011;11895;48.738;9.320;2022-11-15T16:41:30;23.27;;;9.95;;
23444;SDS011;11895;48.738;9.320;2022-11-15T16:43:58;21.30;;;10.40;;
23444;SDS011;11895;48.738;9.320;2022-11-15T16:46:26;20.00;;;10.68;;
23444;SDS011;11895;48.738;9.320;2022-11-15T16:48:55;17.75;;;10.25;;
23444;SDS011;11895;48.738;9.320;2022-11-15T16:51:23;22.40;;;9.73;;
23444;SDS011;11895;48.738;9.320;2022-11-15T16:53:51;22.15;;;9.77;;
23444;SDS011;11895;48.738;9.320;2022-11-15T16:56:23;23.23;;;9.40;;
23444;SDS011;11895;48.738;9.320;2022-11-15T16:58:57;26.08;;;9.40;;
23444;SDS011;11895;48.738;9.320;2022-11-15T17:01:28;25.63;;;9.95;;
23444;SDS011;11895;48.738;9.320;2022-11-15T17:03:59;16.10;;;10.30;;
23444;SDS011;11895;48.738;9.320;2022-11-15T17:06:43;21.13;;;9.77;;
23444;SDS011;11895;48.738;9.320;2022-11-15T17:09:13;17.25;;;8.25;;
23444;SDS011;11895;48.738;9.320;2022-11-15T17:11:51;21.40;;;7.85;;
23444;SDS011;11895;48.738;9.320;2022-11-15T17:14:19;13.95;;;8.43;;
23444;SDS011;11895;48.738;9.320;2022-11-15T17:16:47;21.70;;;10.13;;
23444;SDS011;11895;48.738;9.320;2022-11-15T17:19:16;20.73;;;11.10;;
23444;SDS011;11895;48.738;9.320;2022-11-15T17:21:45;20.05;;;11.52;;
23444;SDS011;11895;48.738;9.320;2022-11-15T17:24:16;18.02;;;10.07;;
23444;SDS011;11895;48.738;9.320;2022-11-15T17:26:46;19.48;;;11.30;;
23444;SDS011;11895;48.738;9.320;2022-11-15T17:29:16;21.95;;;12.18;;
23444;SDS011;11895;48.738;9.320;2022-11-15T17:31:44;18.27;;;10.38;;
23444;SDS011;11895;48.738;9.320;2022-11-15T17:34:11;20.35;;;10.15;;
23444;SDS011;11895;48.738;9.320;2022-11-15T17:36:39;27.17;;;11.55;;
23444;SDS011;11895;48.738;9.320;2022-11-15T17:39:07;21.80;;;11.77;;
23444;SDS011;11895;48.738;9.320;2022-11-15T17:41:35;24.63;;;11.30;;
23444;SDS011;11895;48.738;9.320;2022-11-15T17:44:03;19.63;;;12.13;;
23444;SDS011;11895;48.738;9.320;2022-11-15T17:46:30;29.30;;;13.63;;
23444;SDS011;11895;48.738;9.320;2022-11-15T17:48:59;25.90;;;13.57;;
23444;SDS011;11895;48.738;9.320;2022-11-15T17:51:27;26.10;;;13.10;;
23444;SDS011;11895;48.738;9.320;2022-11-15T17:53:55;21.38;;;11.57;;
23444;SDS011;11895;48.738;9.320;2022-11-15T17:56:24;22.10;;;10.38;;
23444;SDS011;11895;48.738;9.320;2022-11-15T17:58:58;18.08;;;8.70;;
23444;SDS011;11895;48.738;9.320;2022-11-15T18:01:27;18.00;;;9.65;;
23444;SDS011;11895;48.738;9.320;2022-11-15T18:03:58;24.60;;;12.02;;
23444;SDS011;11895;48.738;9.320;2022-11-15T18:06:29;18.50;;;10.30;;
23444;SDS011;11895;48.738;9.320;2022-11-15T18:08:59;18.75;;;9.90;;
23444;SDS011;11895;48.738;9.320;2022-11-15T18:11:31;19.52;;;10.23;;
23444;SDS011;11895;48.738;9.320;2022-11-15T18:14:05;21.58;;;9.98;;
23444;SDS011;11895;48.738;9.320;2022-11-15T18:16:38;21.27;;;9.13;;
23444;SDS011;11895;48.738;9.320;2022-11-15T18:19:07;21.88;;;9.68;;
23444;SDS011;11895;48.738;9.320;2022-11-15T18:21:39;19.67;;;8.90;;
23444;SDS011;11895;48.738;9.320;2022-11-15T18:24:22;16.85;;;9.18;;
23444;SDS011;11895;48.738;9.320;2022-11-15T18:26:52;15.38;;;9.02;;
23444;SDS011;11895;48.738;9.320;2022-11-15T18:29:26;16.75;;;9.07;;